createdAt,value
2023-05-24T00:00:12.912Z,18.67
2023-05-24T00:03:04.797Z,18.61
2023-05-24T00:05:33.169Z,18.57
2023-05-24T00:08:02.038Z,18.53
2023-05-24T00:10:29.734Z,18.51
2023-05-24T00:12:57.462Z,18.50
2023-05-24T00:15:25.313Z,18.50
2023-05-24T00:17:52.962Z,18.47
2023-05-24T00:20:21.302Z,18.45
2023-05-24T00:22:49.317Z,18.42
2023-05-24T00:25:17.234Z,18.38
2023-05-24T00:27:44.904Z,18.35
2023-05-24T00:30:12.951Z,18.30
2023-05-24T00:32:40.720Z,18.25
2023-05-24T00:35:08.578Z,18.21
2023-05-24T00:37:37.499Z,18.18
2023-05-24T00:40:06.571Z,18.13
2023-05-24T00:42:34.211Z,18.07
2023-05-24T00:45:01.915Z,18.02
2023-05-24T00:47:29.630Z,17.99
2023-05-24T00:49:57.674Z,17.98
2023-05-24T00:52:25.732Z,17.96
2023-05-24T00:54:53.394Z,17.91
2023-05-24T00:57:21.692Z,17.83
2023-05-24T00:59:49.604Z,17.74
2023-05-24T01:02:18.525Z,17.65
2023-05-24T01:04:49.127Z,17.58
2023-05-24T01:07:29.725Z,17.51
2023-05-24T01:10:16.445Z,17.44
2023-05-24T01:12:59.550Z,17.39
2023-05-24T01:15:37.496Z,17.32
2023-05-24T01:18:15.674Z,17.26
2023-05-24T01:20:44.634Z,17.14
2023-05-24T01:23:32.187Z,17.03
2023-05-24T01:26:18.069Z,16.88
2023-05-24T01:28:47.740Z,16.76
2023-05-24T01:31:17.294Z,16.68
2023-05-24T01:33:45.450Z,16.62
2023-05-24T01:36:13.113Z,16.55
2023-05-24T01:38:41.637Z,16.42
2023-05-24T01:41:40.231Z,16.34
2023-05-24T01:44:15.995Z,16.22
2023-05-24T01:46:47.773Z,16.14
2023-05-24T01:49:27.709Z,16.07
2023-05-24T01:52:09.322Z,16.01
2023-05-24T01:54:38.820Z,15.92
2023-05-24T01:57:08.403Z,15.87
2023-05-24T01:59:38.927Z,15.82
2023-05-24T02:02:06.668Z,15.76
2023-05-24T02:04:34.941Z,15.69
2023-05-24T02:07:02.609Z,15.63
2023-05-24T02:09:30.458Z,15.59
2023-05-24T02:11:58.214Z,15.57
2023-05-24T02:14:26.380Z,15.55
2023-05-24T02:16:58.882Z,15.53
2023-05-24T02:19:26.949Z,15.54
2023-05-24T02:21:54.669Z,15.53
2023-05-24T02:24:22.299Z,15.52
2023-05-24T02:26:49.933Z,15.51
2023-05-24T02:29:18.013Z,15.50
2023-05-24T02:31:45.680Z,15.49
2023-05-24T02:34:13.286Z,15.45
2023-05-24T02:36:40.910Z,15.41
2023-05-24T02:39:08.579Z,15.40
2023-05-24T02:41:36.270Z,15.40
2023-05-24T02:44:04.405Z,15.38
2023-05-24T02:46:32.481Z,15.36
2023-05-24T02:49:00.413Z,15.34
2023-05-24T02:51:28.062Z,15.32
2023-05-24T02:53:55.752Z,15.30
2023-05-24T02:56:23.667Z,15.28
2023-05-24T02:58:54.286Z,15.26
2023-05-24T03:01:23.116Z,15.23
2023-05-24T03:03:52.178Z,15.21
2023-05-24T03:06:20.793Z,15.20
2023-05-24T03:08:49.823Z,15.18
2023-05-24T03:11:22.036Z,15.15
2023-05-24T03:13:50.197Z,15.12
2023-05-24T03:16:19.704Z,15.09
2023-05-24T03:18:50.847Z,15.08
2023-05-24T03:21:20.853Z,15.08
2023-05-24T03:23:49.223Z,15.07
2023-05-24T03:26:18.807Z,15.07
2023-05-24T03:28:47.644Z,15.07
2023-05-24T03:31:16.933Z,15.07
2023-05-24T03:33:45.143Z,15.07
2023-05-24T03:36:13.492Z,15.08
2023-05-24T03:38:41.414Z,15.09
2023-05-24T03:41:09.330Z,15.13
2023-05-24T03:43:36.980Z,15.16
2023-05-24T03:46:08.996Z,15.19
2023-05-24T03:48:36.990Z,15.24
2023-05-24T03:51:06.132Z,15.26
2023-05-24T03:53:35.758Z,15.30
2023-05-24T03:56:03.614Z,15.33
2023-05-24T03:58:32.148Z,15.37
2023-05-24T04:01:01.068Z,15.40
2023-05-24T04:03:29.210Z,15.43
2023-05-24T04:05:57.154Z,15.46
2023-05-24T04:08:24.854Z,15.48
2023-05-24T04:10:52.531Z,15.50
2023-05-24T04:13:20.259Z,15.54
2023-05-24T04:15:47.966Z,15.57
2023-05-24T04:18:15.978Z,15.63
2023-05-24T04:20:43.944Z,15.69
2023-05-24T04:23:11.754Z,15.75
2023-05-24T04:25:39.464Z,15.83
2023-05-24T04:28:07.528Z,16.01
2023-05-24T04:30:36.807Z,16.36
2023-05-24T04:33:04.726Z,16.38
2023-05-24T04:35:33.568Z,16.32
2023-05-24T04:38:01.246Z,16.28
2023-05-24T04:40:29.168Z,16.27
2023-05-24T04:42:56.807Z,16.33
2023-05-24T04:45:25.109Z,16.43
2023-05-24T04:47:52.912Z,16.50
2023-05-24T04:50:20.763Z,16.53
2023-05-24T04:52:48.427Z,16.54
2023-05-24T04:55:16.104Z,16.56
2023-05-24T04:57:43.728Z,16.57
2023-05-24T05:00:12.067Z,16.61
2023-05-24T05:02:39.880Z,16.64
2023-05-24T05:05:08.047Z,16.72
2023-05-24T05:07:36.712Z,16.78
2023-05-24T05:10:04.985Z,16.77
2023-05-24T05:12:32.601Z,16.78
2023-05-24T05:15:00.265Z,16.78
2023-05-24T05:17:27.922Z,16.81
2023-05-24T05:19:55.792Z,16.83
2023-05-24T05:22:23.551Z,16.88
2023-05-24T05:24:51.997Z,16.97
2023-05-24T05:27:19.590Z,17.12
2023-05-24T05:29:47.344Z,17.24
2023-05-24T05:32:15.496Z,17.36
2023-05-24T05:34:43.128Z,-69.83
2023-05-24T05:37:11.057Z,-128.00
2023-05-24T05:39:38.913Z,-128.00
2023-05-24T05:42:07.059Z,-128.00
2023-05-24T05:44:34.841Z,-128.00
2023-05-24T05:47:03.993Z,-128.00
2023-05-24T05:49:32.816Z,-128.00
2023-05-24T05:52:00.523Z,-128.00
2023-05-24T05:54:28.565Z,-128.00
2023-05-24T05:56:56.197Z,-128.00
2023-05-24T05:59:24.255Z,-128.00
2023-05-24T06:01:52.574Z,-128.00
2023-05-24T06:04:20.451Z,-128.00
2023-05-24T06:06:51.185Z,-128.00
2023-05-24T06:09:18.790Z,-128.00
2023-05-24T06:11:46.513Z,-128.00
2023-05-24T06:14:21.343Z,-128.00
2023-05-24T06:16:49.387Z,-128.00
2023-05-24T06:19:18.238Z,-128.00
2023-05-24T06:21:48.204Z,-128.00
2023-05-24T06:24:21.215Z,-128.00
2023-05-24T06:26:51.057Z,-128.00
2023-05-24T06:29:20.993Z,-128.00
2023-05-24T06:31:49.283Z,-128.00
2023-05-24T06:34:19.049Z,-128.00
2023-05-24T06:36:48.367Z,-128.00
2023-05-24T06:39:16.596Z,-128.00
2023-05-24T06:41:46.158Z,-128.00
2023-05-24T06:44:13.946Z,-128.00
2023-05-24T06:46:41.807Z,-128.00
2023-05-24T06:49:09.534Z,-128.00
2023-05-24T06:51:38.143Z,-128.00
2023-05-24T06:54:05.833Z,-128.00
2023-05-24T06:56:33.468Z,-128.00
2023-05-24T06:59:01.158Z,-128.00
2023-05-24T07:01:29.564Z,-128.00
2023-05-24T07:03:58.014Z,-128.00
2023-05-24T07:06:25.719Z,-128.00
2023-05-24T07:08:53.345Z,-128.00
2023-05-24T07:11:21.784Z,-128.00
2023-05-24T07:13:49.466Z,-128.00
2023-05-24T07:16:17.093Z,-128.00
2023-05-24T07:18:44.731Z,-128.00
2023-05-24T07:21:12.367Z,-128.00
2023-05-24T07:23:40.048Z,-128.00
2023-05-24T07:26:09.246Z,-128.00
2023-05-24T07:28:38.858Z,-128.00
2023-05-24T07:31:08.331Z,-128.00
2023-05-24T07:33:37.917Z,-128.00
2023-05-24T07:36:06.885Z,-128.00
2023-05-24T07:38:36.123Z,-128.00
2023-05-24T07:41:04.848Z,-128.00
2023-05-24T07:43:32.988Z,-128.00
2023-05-24T07:46:01.146Z,-128.00
2023-05-24T07:48:28.864Z,-128.00
2023-05-24T07:50:56.791Z,-128.00
2023-05-24T07:53:24.643Z,-128.00
2023-05-24T07:55:52.484Z,-128.00
2023-05-24T07:58:20.163Z,-128.00
2023-05-24T08:00:47.818Z,-128.00
2023-05-24T08:03:17.418Z,-128.00
2023-05-24T08:05:45.863Z,-128.00
2023-05-24T08:08:14.007Z,-128.00
2023-05-24T08:10:41.836Z,-128.00
2023-05-24T08:13:09.552Z,-128.00
2023-05-24T08:15:37.244Z,-128.00
2023-05-24T08:18:05.362Z,-128.00
2023-05-24T08:20:36.349Z,-128.00
2023-05-24T08:23:04.316Z,-128.00
2023-05-24T08:25:32.087Z,-128.00
2023-05-24T08:27:59.826Z,-128.00
2023-05-24T08:30:28.112Z,-128.00
2023-05-24T08:32:56.052Z,-128.00
2023-05-24T08:35:23.927Z,-128.00
2023-05-24T08:37:52.175Z,-128.00
2023-05-24T08:40:19.971Z,-128.00
2023-05-24T08:42:50.036Z,-128.00
2023-05-24T08:45:18.131Z,-128.00
2023-05-24T08:47:47.009Z,-128.00
2023-05-24T08:50:15.458Z,-128.00
2023-05-24T08:52:44.147Z,-128.00
2023-05-24T08:55:11.957Z,-128.00
2023-05-24T08:57:41.515Z,-128.00
2023-05-24T09:00:12.071Z,-128.00
2023-05-24T09:02:41.106Z,-128.00
2023-05-24T09:05:16.376Z,-128.00
2023-05-24T09:07:45.323Z,-128.00
2023-05-24T09:10:13.149Z,-128.00
2023-05-24T09:12:45.814Z,-128.00
2023-05-24T09:15:13.518Z,-128.00
2023-05-24T09:17:41.281Z,-128.00
2023-05-24T09:20:10.524Z,-128.00
2023-05-24T09:22:42.219Z,-128.00
2023-05-24T09:25:13.836Z,-128.00
2023-05-24T09:27:41.637Z,-128.00
2023-05-24T09:30:10.823Z,-128.00
2023-05-24T09:32:39.134Z,-128.00
2023-05-24T09:35:10.993Z,-128.00
2023-05-24T09:37:40.439Z,-128.00
2023-05-24T09:40:18.962Z,-128.00
2023-05-24T09:42:47.010Z,-128.00
2023-05-24T09:45:14.864Z,-128.00
2023-05-24T09:47:45.364Z,-128.00
2023-05-24T09:50:15.003Z,-128.00
2023-05-24T09:52:43.439Z,-128.00
2023-05-24T09:55:19.069Z,-128.00
2023-05-24T09:58:04.048Z,-128.00
2023-05-24T10:00:36.933Z,-128.00
2023-05-24T10:03:09.207Z,-128.00
2023-05-24T10:05:37.830Z,-128.00
2023-05-24T10:08:05.576Z,-128.00
2023-05-24T10:10:33.957Z,-128.00
2023-05-24T10:13:02.487Z,-128.00
2023-05-24T10:15:30.961Z,-128.00
2023-05-24T10:18:09.899Z,-128.00
2023-05-24T10:20:41.831Z,-128.00
2023-05-24T10:23:10.746Z,-128.00
2023-05-24T10:25:42.117Z,-128.00
2023-05-24T10:28:12.497Z,-128.00
2023-05-24T10:30:48.341Z,-128.00
2023-05-24T10:33:17.064Z,-128.00
2023-05-24T10:35:45.810Z,-128.00
2023-05-24T10:38:13.503Z,-128.00
2023-05-24T10:40:42.265Z,-128.00
2023-05-24T10:43:10.356Z,-128.00
2023-05-24T10:45:39.709Z,-128.00
2023-05-24T10:48:13.749Z,-128.00
2023-05-24T10:50:43.149Z,-128.00
2023-05-24T10:53:18.942Z,-128.00
2023-05-24T10:55:59.367Z,-128.00
2023-05-24T10:58:58.073Z,-128.00
2023-05-24T11:01:35.969Z,-128.00
2023-05-24T11:04:12.009Z,-128.00
2023-05-24T11:06:50.701Z,-128.00
2023-05-24T11:09:20.251Z,-128.00
2023-05-24T11:12:09.327Z,-128.00
2023-05-24T11:14:39.636Z,-128.00
2023-05-24T11:17:08.542Z,-128.00
2023-05-24T11:19:38.205Z,-128.00
2023-05-24T11:22:09.383Z,-128.00
2023-05-24T11:24:38.323Z,-128.00
2023-05-24T11:27:06.263Z,-128.00
2023-05-24T11:29:41.484Z,-128.00
2023-05-24T11:32:09.379Z,-128.00
2023-05-24T11:34:38.010Z,-128.00
2023-05-24T11:37:06.281Z,-128.00
2023-05-24T11:39:36.645Z,-128.00
2023-05-24T11:42:05.181Z,-128.00
2023-05-24T11:44:33.855Z,-128.00
2023-05-24T11:47:02.466Z,-128.00
2023-05-24T11:49:30.229Z,-128.00
2023-05-24T11:51:59.071Z,-128.00
2023-05-24T11:54:29.063Z,-128.00
2023-05-24T11:56:57.575Z,-128.00
2023-05-24T11:59:27.156Z,-128.00
2023-05-24T12:02:00.406Z,-128.00
2023-05-24T12:04:29.453Z,-128.00
2023-05-24T12:06:58.026Z,-128.00
2023-05-24T12:09:27.113Z,-128.00
2023-05-24T12:11:55.433Z,-128.00
2023-05-24T12:14:28.077Z,-128.00
2023-05-24T12:16:56.678Z,-128.00
2023-05-24T12:19:33.209Z,-128.00
2023-05-24T12:22:06.616Z,-128.00
2023-05-24T12:24:35.521Z,-128.00
2023-05-24T12:27:08.194Z,-128.00
2023-05-24T12:29:41.187Z,-128.00
2023-05-24T12:32:14.619Z,-128.00
2023-05-24T12:34:44.823Z,-128.00
2023-05-24T12:37:13.658Z,-128.00
2023-05-24T12:39:43.363Z,-128.00
2023-05-24T12:42:15.116Z,-128.00
2023-05-24T12:44:43.073Z,-128.00
2023-05-24T12:47:12.232Z,-128.00
2023-05-24T12:49:40.041Z,-128.00
2023-05-24T12:52:08.008Z,-128.00
2023-05-24T12:54:35.999Z,-128.00
2023-05-24T12:57:04.029Z,-128.00
2023-05-24T12:59:33.212Z,-128.00
2023-05-24T13:02:01.854Z,-128.00
2023-05-24T13:04:31.621Z,-128.00
2023-05-24T13:07:00.425Z,-128.00
2023-05-24T13:09:28.351Z,-128.00
2023-05-24T13:11:56.131Z,-128.00
2023-05-24T13:14:24.040Z,-128.00
2023-05-24T13:16:52.611Z,-128.00
2023-05-24T13:19:20.568Z,-128.00
2023-05-24T13:21:48.802Z,-128.00
2023-05-24T13:24:17.458Z,-128.00
2023-05-24T13:26:46.314Z,-128.00
2023-05-24T13:31:45.288Z,-128.00
2023-05-24T13:34:13.350Z,-128.00
2023-05-24T13:36:42.543Z,-128.00
2023-05-24T13:41:43.442Z,-128.00
2023-05-24T13:44:13.274Z,-128.00
2023-05-24T13:46:41.813Z,-128.00
2023-05-24T13:49:10.119Z,-128.00
2023-05-24T13:51:38.213Z,-128.00
2023-05-24T13:54:07.503Z,-128.00
2023-05-24T13:56:36.572Z,-128.00
2023-05-24T13:59:05.208Z,-128.00
2023-05-24T14:01:37.780Z,-128.00
2023-05-24T14:04:06.156Z,-128.00
2023-05-24T14:06:34.508Z,-128.00
2023-05-24T14:09:02.577Z,-128.00
2023-05-24T14:11:31.874Z,-128.00
2023-05-24T14:16:31.680Z,-128.00
2023-05-24T14:18:59.576Z,-128.00
2023-05-24T14:21:27.834Z,-128.00
2023-05-24T14:23:55.647Z,-128.00
2023-05-24T14:26:23.858Z,-128.00
2023-05-24T14:28:54.410Z,-128.00
2023-05-24T14:31:24.663Z,-128.00
2023-05-24T14:33:52.457Z,-128.00
2023-05-24T14:36:20.372Z,-128.00
2023-05-24T14:38:48.092Z,-128.00
2023-05-24T14:41:16.288Z,-128.00
2023-05-24T14:43:44.448Z,-128.00
2023-05-24T14:46:12.249Z,-128.00
2023-05-24T14:48:41.488Z,-128.00
2023-05-24T14:51:09.444Z,-128.00
2023-05-24T14:53:37.528Z,-128.00
2023-05-24T14:56:07.446Z,-128.00
2023-05-24T14:58:36.059Z,-128.00
2023-05-24T15:01:03.946Z,-128.00
2023-05-24T15:03:32.838Z,-128.00
2023-05-24T15:06:01.415Z,-128.00
2023-05-24T15:08:29.210Z,-128.00
2023-05-24T15:10:58.844Z,-128.00
2023-05-24T15:13:27.574Z,-128.00
2023-05-24T15:15:56.766Z,-128.00
2023-05-24T15:18:25.751Z,-128.00
2023-05-24T15:20:55.954Z,-128.00
2023-05-24T15:23:24.575Z,-128.00
2023-05-24T15:25:52.589Z,-128.00
2023-05-24T15:28:20.677Z,-128.00
2023-05-24T15:30:49.425Z,-128.00
2023-05-24T15:33:17.378Z,-128.00
2023-05-24T15:35:45.919Z,-128.00
2023-05-24T15:38:17.496Z,-128.00
2023-05-24T15:40:46.170Z,-128.00
2023-05-24T15:43:15.775Z,-128.00
2023-05-24T15:45:44.258Z,-128.00
2023-05-24T15:48:12.931Z,-128.00
2023-05-24T15:53:12.073Z,-128.00
2023-05-24T15:55:39.741Z,-128.00
2023-05-24T15:58:07.698Z,-128.00
2023-05-24T16:00:35.464Z,-128.00
2023-05-24T16:03:03.896Z,-128.00
2023-05-24T16:05:31.886Z,-128.00
2023-05-24T16:07:59.728Z,-128.00
2023-05-24T16:10:27.494Z,-128.00
2023-05-24T16:12:56.066Z,-128.00
2023-05-24T16:15:23.744Z,-128.00
2023-05-24T16:17:51.421Z,-128.00
2023-05-24T16:20:19.227Z,-128.00
2023-05-24T16:22:51.025Z,-128.00
2023-05-24T16:25:18.910Z,-128.00
2023-05-24T16:27:46.724Z,-128.00
2023-05-24T16:30:15.044Z,-128.00
2023-05-24T16:32:45.222Z,-128.00
2023-05-24T16:35:13.388Z,-128.00
2023-05-24T16:37:41.149Z,-128.00
2023-05-24T16:40:09.761Z,-128.00
2023-05-24T16:42:37.500Z,-128.00
2023-05-24T16:45:06.380Z,-128.00
2023-05-24T16:47:34.545Z,-128.00
2023-05-24T16:50:03.955Z,-128.00
2023-05-24T16:52:32.021Z,-128.00
2023-05-24T16:55:00.205Z,-128.00
2023-05-24T16:57:27.912Z,-128.00
2023-05-24T16:59:56.146Z,-128.00
2023-05-24T17:02:24.228Z,-128.00
2023-05-24T17:04:52.694Z,-128.00
2023-05-24T17:07:20.481Z,-128.00
2023-05-24T17:09:50.300Z,-128.00
2023-05-24T17:12:18.835Z,-128.00
2023-05-24T17:14:46.866Z,-128.00
2023-05-24T17:17:14.966Z,-128.00
2023-05-24T17:19:43.419Z,-128.00
2023-05-24T17:22:11.490Z,-128.00
2023-05-24T17:24:39.987Z,-128.00
2023-05-24T17:27:08.086Z,-128.00
2023-05-24T17:29:36.242Z,-128.00
2023-05-24T17:32:05.343Z,-128.00
2023-05-24T17:34:33.056Z,-128.00
2023-05-24T17:37:01.730Z,-128.00
2023-05-24T17:39:30.188Z,-128.00
2023-05-24T17:41:59.260Z,-128.00
2023-05-24T17:44:27.348Z,-128.00
2023-05-24T17:46:57.518Z,-128.00
2023-05-24T17:49:26.480Z,-128.00
2023-05-24T17:51:54.221Z,-128.00
2023-05-24T17:54:23.116Z,-128.00
2023-05-24T17:56:51.893Z,-128.00
2023-05-24T17:59:20.247Z,-128.00
2023-05-24T18:01:48.482Z,-128.00
2023-05-24T18:04:16.759Z,-128.00
2023-05-24T18:06:45.433Z,-128.00
2023-05-24T18:09:13.412Z,-128.00
2023-05-24T18:11:41.896Z,-128.00
2023-05-24T18:14:10.084Z,-128.00
2023-05-24T18:16:38.975Z,-128.00
2023-05-24T18:19:06.690Z,-128.00
2023-05-24T18:21:34.448Z,-128.00
2023-05-24T18:24:02.579Z,-128.00
2023-05-24T18:26:30.734Z,-128.00
2023-05-24T18:28:59.186Z,-128.00
2023-05-24T18:31:26.925Z,-128.00
2023-05-24T18:33:55.185Z,-128.00
2023-05-24T18:36:23.354Z,-128.00
2023-05-24T18:38:51.411Z,-128.00
2023-05-24T18:41:19.619Z,-128.00
2023-05-24T18:43:50.276Z,-128.00
2023-05-24T18:46:17.990Z,-128.00
2023-05-24T18:48:47.442Z,-128.00
2023-05-24T18:51:15.450Z,-128.00
2023-05-24T18:53:43.121Z,-128.00
2023-05-24T18:56:11.377Z,-128.00
2023-05-24T18:58:41.394Z,-128.00
2023-05-24T19:01:10.215Z,-128.00
2023-05-24T19:03:39.243Z,-128.00
2023-05-24T19:06:08.323Z,-128.00
2023-05-24T19:08:37.249Z,-128.00
2023-05-24T19:11:05.461Z,-128.00
2023-05-24T19:13:33.704Z,-128.00
2023-05-24T19:16:02.064Z,-128.00
2023-05-24T19:18:29.911Z,-128.00
2023-05-24T19:20:58.980Z,-128.00
2023-05-24T19:23:26.993Z,-128.00
2023-05-24T19:25:55.009Z,-128.00
2023-05-24T19:28:24.123Z,-128.00
2023-05-24T19:30:53.215Z,-128.00
2023-05-24T19:33:20.911Z,-128.00
2023-05-24T19:35:48.775Z,-128.00
2023-05-24T19:38:18.099Z,-128.00
2023-05-24T19:40:47.239Z,-128.00
2023-05-24T19:43:16.140Z,-128.00
2023-05-24T19:45:44.174Z,-128.00
2023-05-24T19:48:12.619Z,-128.00
2023-05-24T19:50:40.690Z,-128.00
2023-05-24T19:53:09.882Z,-128.00
2023-05-24T19:55:37.976Z,-128.00
2023-05-24T19:58:07.189Z,-128.00
2023-05-24T20:00:34.904Z,-128.00
2023-05-24T20:03:04.202Z,-128.00
2023-05-24T20:05:33.363Z,-128.00
2023-05-24T20:08:01.078Z,-128.00
2023-05-24T20:10:31.866Z,-128.00
2023-05-24T20:13:00.025Z,-128.00
2023-05-24T20:15:28.507Z,-128.00
2023-05-24T20:17:56.951Z,-128.00
2023-05-24T20:20:25.982Z,-128.00
2023-05-24T20:22:53.869Z,-128.00
2023-05-24T20:25:22.786Z,-128.00
2023-05-24T20:27:50.849Z,-128.00
2023-05-24T20:30:19.850Z,-128.00
2023-05-24T20:32:47.575Z,-128.00
2023-05-24T20:35:15.812Z,-128.00
2023-05-24T20:37:43.889Z,-128.00
2023-05-24T20:40:13.356Z,-128.00
2023-05-24T20:42:41.154Z,-128.00
2023-05-24T20:45:10.561Z,-128.00
2023-05-24T20:47:38.242Z,-128.00
2023-05-24T20:50:09.852Z,-128.00
2023-05-24T20:52:37.457Z,-128.00
2023-05-24T20:55:05.744Z,-128.00
2023-05-24T20:57:34.252Z,-128.00
2023-05-24T21:00:01.916Z,-128.00
2023-05-24T21:02:29.687Z,-128.00
2023-05-24T21:04:58.228Z,-128.00
2023-05-24T21:07:26.035Z,-128.00
2023-05-24T21:09:54.126Z,-128.00
2023-05-24T21:12:21.821Z,-128.00
2023-05-24T21:14:53.662Z,-128.00
2023-05-24T21:17:21.481Z,-128.00
2023-05-24T21:19:49.135Z,-128.00
2023-05-24T21:22:16.767Z,-128.00
2023-05-24T21:24:44.398Z,-128.00
2023-05-24T21:27:12.110Z,-128.00
2023-05-24T21:29:41.661Z,-128.00
2023-05-24T21:32:09.396Z,-128.00
2023-05-24T21:34:37.164Z,-128.00
2023-05-24T21:37:05.090Z,-128.00
2023-05-24T21:39:32.830Z,-128.00
2023-05-24T21:42:00.468Z,-128.00
2023-05-24T21:44:28.469Z,-128.00
2023-05-24T21:46:56.385Z,-128.00
2023-05-24T21:49:24.164Z,-128.00
2023-05-24T21:51:51.894Z,-128.00
2023-05-24T21:54:22.329Z,-128.00
2023-05-24T21:56:49.952Z,-128.00
2023-05-24T21:59:17.593Z,-128.00
2023-05-24T22:01:45.256Z,-128.00
2023-05-24T22:04:13.069Z,-128.00
2023-05-24T22:06:42.646Z,-128.00
2023-05-24T22:09:10.614Z,-128.00
2023-05-24T22:11:38.295Z,-128.00
2023-05-24T22:14:06.042Z,-128.00
2023-05-24T22:16:33.809Z,-128.00
2023-05-24T22:19:03.325Z,-128.00
2023-05-24T22:21:33.868Z,-128.00
2023-05-24T22:24:01.664Z,-128.00
2023-05-24T22:26:30.669Z,-128.00
2023-05-24T22:29:00.975Z,-128.00
2023-05-24T22:31:30.814Z,-128.00
2023-05-24T22:34:02.113Z,-128.00
2023-05-24T22:36:34.082Z,-128.00
2023-05-24T22:39:02.060Z,-128.00
2023-05-24T22:41:29.958Z,-128.00
2023-05-24T22:43:57.812Z,-128.00
2023-05-24T22:46:26.206Z,-128.00
2023-05-24T22:48:56.528Z,-128.00
2023-05-24T22:51:24.571Z,-128.00
2023-05-24T22:53:52.910Z,-128.00
2023-05-24T22:56:20.794Z,-128.00
2023-05-24T22:58:48.571Z,-128.00
2023-05-24T23:01:19.217Z,-128.00
2023-05-24T23:03:46.888Z,-128.00
2023-05-24T23:06:15.599Z,-128.00
2023-05-24T23:08:43.302Z,-128.00
2023-05-24T23:11:10.912Z,-128.00
2023-05-24T23:13:38.631Z,-128.00
2023-05-24T23:16:06.591Z,-128.00
2023-05-24T23:18:37.459Z,-128.00
2023-05-24T23:21:05.118Z,-128.00
2023-05-24T23:23:32.724Z,-128.00
2023-05-24T23:26:00.463Z,-128.00
2023-05-24T23:28:28.109Z,-128.00
2023-05-24T23:30:55.889Z,-128.00
2023-05-24T23:33:23.605Z,-128.00
2023-05-24T23:35:51.229Z,-128.00
2023-05-24T23:38:18.859Z,-128.00
2023-05-24T23:40:46.708Z,-128.00
2023-05-24T23:43:14.724Z,-128.00
2023-05-24T23:45:42.593Z,-128.00
2023-05-24T23:48:10.536Z,-128.00
2023-05-24T23:50:52.992Z,-128.00
2023-05-24T23:53:21.960Z,-128.00
2023-05-24T23:55:49.647Z,-128.00
2023-05-24T23:58:17.362Z,-128.00
